sensor_id;sensor_type;location;lat;lon;timestamp;P1;durP1;ratioP1;P2;durP2;ratioP2
23680;SDS011;62915;50.832;4.462;2023-12-28T00:00:48;5.25;;;2.83;;
23680;SDS011;62915;50.832;4.462;2023-12-28T00:03:14;5.38;;;2.72;;
23680;SDS011;62915;50.832;4.462;2023-12-28T00:05:40;5.90;;;3.17;;
23680;SDS011;62915;50.832;4.462;2023-12-28T00:08:06;5.82;;;3.10;;
23680;SDS011;62915;50.832;4.462;2023-12-28T00:10:31;4.95;;;2.95;;
23680;SDS011;62915;50.832;4.462;2023-12-28T00:12:57;6.25;;;3.15;;
23680;SDS011;62915;50.832;4.462;2023-12-28T00:15:23;4.72;;;2.97;;
23680;SDS011;62915;50.832;4.462;2023-12-28T00:17:49;4.22;;;3.05;;
23680;SDS011;62915;50.832;4.462;2023-12-28T00:20:14;5.22;;;2.95;;
23680;SDS011;62915;50.832;4.462;2023-12-28T00:22:40;7.68;;;2.80;;
23680;SDS011;62915;50.832;4.462;2023-12-28T00:25:06;5.10;;;3.20;;
23680;SDS011;62915;50.832;4.462;2023-12-28T00:27:32;6.20;;;2.75;;
23680;SDS011;62915;50.832;4.462;2023-12-28T00:30:03;5.07;;;2.95;;
23680;SDS011;62915;50.832;4.462;2023-12-28T00:32:30;5.15;;;3.13;;
23680;SDS011;62915;50.832;4.462;2023-12-28T00:34:56;7.13;;;3.45;;
23680;SDS011;62915;50.832;4.462;2023-12-28T00:37:21;3.97;;;2.97;;
23680;SDS011;62915;50.832;4.462;2023-12-28T00:39:47;6.60;;;3.10;;
23680;SDS011;62915;50.832;4.462;2023-12-28T00:42:15;6.10;;;3.30;;
23680;SDS011;62915;50.832;4.462;2023-12-28T00:44:42;5.70;;;2.97;;
23680;SDS011;62915;50.832;4.462;2023-12-28T00:47:10;5.95;;;3.35;;
23680;SDS011;62915;50.832;4.462;2023-12-28T00:49:36;5.25;;;3.25;;
23680;SDS011;62915;50.832;4.462;2023-12-28T00:52:02;4.18;;;2.85;;
23680;SDS011;62915;50.832;4.462;2023-12-28T00:54:28;5.55;;;3.33;;
23680;SDS011;62915;50.832;4.462;2023-12-28T00:56:53;6.38;;;3.30;;
23680;SDS011;62915;50.832;4.462;2023-12-28T00:59:19;4.35;;;2.83;;
23680;SDS011;62915;50.832;4.462;2023-12-28T01:01:45;5.47;;;3.08;;
23680;SDS011;62915;50.832;4.462;2023-12-28T01:04:10;6.30;;;2.65;;
23680;SDS011;62915;50.832;4.462;2023-12-28T01:06:36;4.35;;;3.05;;
23680;SDS011;62915;50.832;4.462;2023-12-28T01:09:02;4.40;;;3.20;;
23680;SDS011;62915;50.832;4.462;2023-12-28T01:11:28;6.78;;;3.03;;
23680;SDS011;62915;50.832;4.462;2023-12-28T01:13:53;6.85;;;3.38;;
23680;SDS011;62915;50.832;4.462;2023-12-28T01:16:19;6.72;;;3.00;;
23680;SDS011;62915;50.832;4.462;2023-12-28T01:18:46;7.00;;;3.42;;
23680;SDS011;62915;50.832;4.462;2023-12-28T01:21:11;4.00;;;3.05;;
23680;SDS011;62915;50.832;4.462;2023-12-28T01:23:37;4.75;;;2.83;;
23680;SDS011;62915;50.832;4.462;2023-12-28T01:26:03;5.20;;;3.25;;
23680;SDS011;62915;50.832;4.462;2023-12-28T01:28:28;5.13;;;3.25;;
23680;SDS011;62915;50.832;4.462;2023-12-28T01:30:55;6.00;;;3.35;;
23680;SDS011;62915;50.832;4.462;2023-12-28T01:33:20;5.00;;;3.13;;
23680;SDS011;62915;50.832;4.462;2023-12-28T01:35:46;7.97;;;3.35;;
23680;SDS011;62915;50.832;4.462;2023-12-28T01:38:12;4.78;;;3.38;;
23680;SDS011;62915;50.832;4.462;2023-12-28T01:40:38;6.93;;;2.83;;
23680;SDS011;62915;50.832;4.462;2023-12-28T01:43:08;3.50;;;2.55;;
23680;SDS011;62915;50.832;4.462;2023-12-28T01:45:34;7.88;;;3.45;;
23680;SDS011;62915;50.832;4.462;2023-12-28T01:48:00;5.78;;;2.90;;
23680;SDS011;62915;50.832;4.462;2023-12-28T01:50:26;5.10;;;3.00;;
23680;SDS011;62915;50.832;4.462;2023-12-28T01:52:53;4.95;;;2.70;;
23680;SDS011;62915;50.832;4.462;2023-12-28T01:55:21;5.57;;;2.97;;
23680;SDS011;62915;50.832;4.462;2023-12-28T01:57:49;3.13;;;2.33;;
23680;SDS011;62915;50.832;4.462;2023-12-28T02:00:15;6.78;;;2.40;;
23680;SDS011;62915;50.832;4.462;2023-12-28T02:02:41;8.15;;;2.80;;
23680;SDS011;62915;50.832;4.462;2023-12-28T02:05:08;4.20;;;2.85;;
23680;SDS011;62915;50.832;4.462;2023-12-28T02:07:36;3.83;;;2.15;;
23680;SDS011;62915;50.832;4.462;2023-12-28T02:10:02;7.13;;;2.58;;
23680;SDS011;62915;50.832;4.462;2023-12-28T02:12:28;5.78;;;2.70;;
23680;SDS011;62915;50.832;4.462;2023-12-28T02:14:54;3.75;;;2.30;;
23680;SDS011;62915;50.832;4.462;2023-12-28T02:17:22;8.45;;;3.00;;
23680;SDS011;62915;50.832;4.462;2023-12-28T02:19:55;4.70;;;2.50;;
23680;SDS011;62915;50.832;4.462;2023-12-28T02:22:22;4.97;;;2.53;;
23680;SDS011;62915;50.832;4.462;2023-12-28T02:24:54;9.23;;;3.00;;
23680;SDS011;62915;50.832;4.462;2023-12-28T02:27:31;5.50;;;2.70;;
23680;SDS011;62915;50.832;4.462;2023-12-28T02:29:58;4.15;;;2.42;;
23680;SDS011;62915;50.832;4.462;2023-12-28T02:32:27;5.60;;;2.85;;
23680;SDS011;62915;50.832;4.462;2023-12-28T02:38:05;6.90;;;2.35;;
23680;SDS011;62915;50.832;4.462;2023-12-28T02:40:37;4.68;;;2.60;;
23680;SDS011;62915;50.832;4.462;2023-12-28T02:43:08;9.20;;;2.65;;
23680;SDS011;62915;50.832;4.462;2023-12-28T02:45:34;7.20;;;2.70;;
23680;SDS011;62915;50.832;4.462;2023-12-28T02:48:01;5.50;;;2.50;;
23680;SDS011;62915;50.832;4.462;2023-12-28T02:50:27;6.25;;;2.58;;
23680;SDS011;62915;50.832;4.462;2023-12-28T02:52:55;6.20;;;2.50;;
23680;SDS011;62915;50.832;4.462;2023-12-28T02:55:24;5.13;;;2.53;;
23680;SDS011;62915;50.832;4.462;2023-12-28T02:57:50;9.65;;;2.63;;
23680;SDS011;62915;50.832;4.462;2023-12-28T03:00:17;5.35;;;2.55;;
23680;SDS011;62915;50.832;4.462;2023-12-28T03:02:43;7.43;;;2.55;;
23680;SDS011;62915;50.832;4.462;2023-12-28T03:05:10;8.27;;;2.90;;
23680;SDS011;62915;50.832;4.462;2023-12-28T03:07:36;6.70;;;2.53;;
23680;SDS011;62915;50.832;4.462;2023-12-28T03:10:02;5.40;;;2.55;;
23680;SDS011;62915;50.832;4.462;2023-12-28T03:12:28;10.13;;;2.67;;
23680;SDS011;62915;50.832;4.462;2023-12-28T03:14:55;6.22;;;2.13;;
23680;SDS011;62915;50.832;4.462;2023-12-28T03:17:21;6.63;;;2.38;;
23680;SDS011;62915;50.832;4.462;2023-12-28T03:19:47;5.78;;;1.80;;
23680;SDS011;62915;50.832;4.462;2023-12-28T03:22:13;8.13;;;2.60;;
23680;SDS011;62915;50.832;4.462;2023-12-28T03:24:39;8.70;;;2.60;;
23680;SDS011;62915;50.832;4.462;2023-12-28T03:27:05;7.15;;;2.35;;
23680;SDS011;62915;50.832;4.462;2023-12-28T03:29:32;8.32;;;2.95;;
23680;SDS011;62915;50.832;4.462;2023-12-28T03:31:58;7.30;;;2.28;;
23680;SDS011;62915;50.832;4.462;2023-12-28T03:34:25;7.95;;;2.63;;
23680;SDS011;62915;50.832;4.462;2023-12-28T03:36:55;3.95;;;2.28;;
23680;SDS011;62915;50.832;4.462;2023-12-28T03:39:22;6.68;;;2.22;;
23680;SDS011;62915;50.832;4.462;2023-12-28T03:41:48;8.55;;;2.70;;
23680;SDS011;62915;50.832;4.462;2023-12-28T03:44:14;7.85;;;2.20;;
23680;SDS011;62915;50.832;4.462;2023-12-28T03:46:40;9.38;;;2.58;;
23680;SDS011;62915;50.832;4.462;2023-12-28T03:49:06;8.50;;;2.60;;
23680;SDS011;62915;50.832;4.462;2023-12-28T03:51:31;7.53;;;2.53;;
23680;SDS011;62915;50.832;4.462;2023-12-28T03:53:57;5.82;;;2.22;;
23680;SDS011;62915;50.832;4.462;2023-12-28T03:56:26;13.93;;;2.53;;
23680;SDS011;62915;50.832;4.462;2023-12-28T03:58:53;7.55;;;2.50;;
23680;SDS011;62915;50.832;4.462;2023-12-28T04:01:20;7.38;;;2.70;;
23680;SDS011;62915;50.832;4.462;2023-12-28T04:03:47;11.55;;;2.28;;
23680;SDS011;62915;50.832;4.462;2023-12-28T04:06:14;7.40;;;2.47;;
23680;SDS011;62915;50.832;4.462;2023-12-28T04:08:40;8.55;;;2.13;;
23680;SDS011;62915;50.832;4.462;2023-12-28T04:11:06;9.13;;;2.25;;
23680;SDS011;62915;50.832;4.462;2023-12-28T04:13:33;13.48;;;2.65;;
23680;SDS011;62915;50.832;4.462;2023-12-28T04:15:58;10.52;;;2.42;;
23680;SDS011;62915;50.832;4.462;2023-12-28T04:18:24;9.63;;;2.38;;
23680;SDS011;62915;50.832;4.462;2023-12-28T04:20:50;8.90;;;2.47;;
23680;SDS011;62915;50.832;4.462;2023-12-28T04:23:16;7.93;;;2.85;;
23680;SDS011;62915;50.832;4.462;2023-12-28T04:25:42;11.30;;;2.67;;
23680;SDS011;62915;50.832;4.462;2023-12-28T04:28:08;10.55;;;2.40;;
23680;SDS011;62915;50.832;4.462;2023-12-28T04:30:33;6.28;;;2.33;;
23680;SDS011;62915;50.832;4.462;2023-12-28T04:33:00;8.95;;;2.47;;
23680;SDS011;62915;50.832;4.462;2023-12-28T04:35:26;13.45;;;2.90;;
23680;SDS011;62915;50.832;4.462;2023-12-28T04:37:52;11.32;;;2.33;;
23680;SDS011;62915;50.832;4.462;2023-12-28T04:40:18;7.97;;;2.33;;
23680;SDS011;62915;50.832;4.462;2023-12-28T04:42:43;8.27;;;2.67;;
23680;SDS011;62915;50.832;4.462;2023-12-28T04:45:09;14.02;;;2.95;;
23680;SDS011;62915;50.832;4.462;2023-12-28T04:47:36;13.30;;;2.75;;
23680;SDS011;62915;50.832;4.462;2023-12-28T04:50:02;8.77;;;2.08;;
23680;SDS011;62915;50.832;4.462;2023-12-28T04:52:28;8.90;;;2.65;;
23680;SDS011;62915;50.832;4.462;2023-12-28T04:54:54;13.45;;;2.63;;
23680;SDS011;62915;50.832;4.462;2023-12-28T04:57:20;12.70;;;2.88;;
23680;SDS011;62915;50.832;4.462;2023-12-28T04:59:46;11.82;;;2.50;;
23680;SDS011;62915;50.832;4.462;2023-12-28T05:02:11;13.63;;;3.00;;
23680;SDS011;62915;50.832;4.462;2023-12-28T05:04:37;11.10;;;2.58;;
23680;SDS011;62915;50.832;4.462;2023-12-28T05:07:06;8.93;;;2.35;;
23680;SDS011;62915;50.832;4.462;2023-12-28T05:09:31;9.18;;;2.80;;
23680;SDS011;62915;50.832;4.462;2023-12-28T05:11:57;12.70;;;2.75;;
23680;SDS011;62915;50.832;4.462;2023-12-28T05:14:23;6.90;;;2.08;;
23680;SDS011;62915;50.832;4.462;2023-12-28T05:16:51;16.98;;;2.92;;
23680;SDS011;62915;50.832;4.462;2023-12-28T05:19:17;10.55;;;2.78;;
23680;SDS011;62915;50.832;4.462;2023-12-28T05:21:43;10.82;;;2.92;;
23680;SDS011;62915;50.832;4.462;2023-12-28T05:24:10;13.07;;;2.25;;
23680;SDS011;62915;50.832;4.462;2023-12-28T05:26:36;10.48;;;2.45;;
23680;SDS011;62915;50.832;4.462;2023-12-28T05:29:02;11.73;;;3.05;;
23680;SDS011;62915;50.832;4.462;2023-12-28T05:31:28;9.68;;;2.42;;
23680;SDS011;62915;50.832;4.462;2023-12-28T05:33:54;10.43;;;2.40;;
23680;SDS011;62915;50.832;4.462;2023-12-28T05:36:20;13.30;;;2.55;;
23680;SDS011;62915;50.832;4.462;2023-12-28T05:38:46;8.98;;;2.35;;
23680;SDS011;62915;50.832;4.462;2023-12-28T05:41:12;11.35;;;2.50;;
23680;SDS011;62915;50.832;4.462;2023-12-28T05:43:38;11.55;;;2.83;;
23680;SDS011;62915;50.832;4.462;2023-12-28T05:46:04;10.10;;;3.00;;
23680;SDS011;62915;50.832;4.462;2023-12-28T05:48:29;12.35;;;2.95;;
23680;SDS011;62915;50.832;4.462;2023-12-28T05:50:59;10.50;;;2.45;;
23680;SDS011;62915;50.832;4.462;2023-12-28T05:53:25;12.88;;;2.30;;
23680;SDS011;62915;50.832;4.462;2023-12-28T05:55:52;11.45;;;2.70;;
23680;SDS011;62915;50.832;4.462;2023-12-28T05:58:17;12.15;;;2.75;;
23680;SDS011;62915;50.832;4.462;2023-12-28T06:00:43;18.55;;;3.42;;
23680;SDS011;62915;50.832;4.462;2023-12-28T06:03:11;15.10;;;3.50;;
23680;SDS011;62915;50.832;4.462;2023-12-28T06:05:37;10.77;;;3.00;;
23680;SDS011;62915;50.832;4.462;2023-12-28T06:08:03;15.15;;;3.35;;
23680;SDS011;62915;50.832;4.462;2023-12-28T06:10:29;14.48;;;2.65;;
23680;SDS011;62915;50.832;4.462;2023-12-28T06:12:55;9.52;;;2.88;;
23680;SDS011;62915;50.832;4.462;2023-12-28T06:15:21;13.02;;;3.25;;
23680;SDS011;62915;50.832;4.462;2023-12-28T06:17:46;11.32;;;2.63;;
23680;SDS011;62915;50.832;4.462;2023-12-28T06:20:12;10.90;;;2.88;;
23680;SDS011;62915;50.832;4.462;2023-12-28T06:22:38;14.00;;;2.95;;
23680;SDS011;62915;50.832;4.462;2023-12-28T06:25:04;14.43;;;2.60;;
23680;SDS011;62915;50.832;4.462;2023-12-28T06:27:31;14.18;;;2.85;;
23680;SDS011;62915;50.832;4.462;2023-12-28T06:29:58;17.40;;;3.25;;
23680;SDS011;62915;50.832;4.462;2023-12-28T06:32:24;12.98;;;2.50;;
23680;SDS011;62915;50.832;4.462;2023-12-28T06:34:50;9.55;;;2.40;;
23680;SDS011;62915;50.832;4.462;2023-12-28T06:37:15;13.75;;;3.05;;
23680;SDS011;62915;50.832;4.462;2023-12-28T06:39:41;15.13;;;2.92;;
23680;SDS011;62915;50.832;4.462;2023-12-28T06:42:07;14.02;;;2.70;;
23680;SDS011;62915;50.832;4.462;2023-12-28T06:44:33;11.00;;;2.38;;
23680;SDS011;62915;50.832;4.462;2023-12-28T06:46:58;19.10;;;3.15;;
23680;SDS011;62915;50.832;4.462;2023-12-28T06:49:24;11.48;;;2.42;;
23680;SDS011;62915;50.832;4.462;2023-12-28T06:51:50;15.32;;;2.97;;
23680;SDS011;62915;50.832;4.462;2023-12-28T06:54:16;12.55;;;2.78;;
23680;SDS011;62915;50.832;4.462;2023-12-28T06:56:42;14.48;;;3.00;;
23680;SDS011;62915;50.832;4.462;2023-12-28T06:59:08;14.32;;;2.40;;
23680;SDS011;62915;50.832;4.462;2023-12-28T07:01:40;14.45;;;2.70;;
23680;SDS011;62915;50.832;4.462;2023-12-28T07:04:06;16.60;;;3.50;;
23680;SDS011;62915;50.832;4.462;2023-12-28T07:06:32;15.27;;;2.75;;
23680;SDS011;62915;50.832;4.462;2023-12-28T07:08:58;17.00;;;2.97;;
23680;SDS011;62915;50.832;4.462;2023-12-28T07:11:24;11.57;;;3.13;;
23680;SDS011;62915;50.832;4.462;2023-12-28T07:13:51;15.85;;;3.25;;
23680;SDS011;62915;50.832;4.462;2023-12-28T07:16:18;13.85;;;3.25;;
23680;SDS011;62915;50.832;4.462;2023-12-28T07:18:44;15.73;;;2.90;;
23680;SDS011;62915;50.832;4.462;2023-12-28T07:21:09;16.00;;;3.30;;
23680;SDS011;62915;50.832;4.462;2023-12-28T07:23:35;15.35;;;3.28;;
23680;SDS011;62915;50.832;4.462;2023-12-28T07:26:02;11.25;;;3.42;;
23680;SDS011;62915;50.832;4.462;2023-12-28T07:28:28;20.92;;;3.13;;
23680;SDS011;62915;50.832;4.462;2023-12-28T07:30:54;14.00;;;3.38;;
23680;SDS011;62915;50.832;4.462;2023-12-28T07:33:20;15.70;;;3.38;;
23680;SDS011;62915;50.832;4.462;2023-12-28T07:35:46;15.63;;;3.05;;
23680;SDS011;62915;50.832;4.462;2023-12-28T07:38:12;17.10;;;3.72;;
23680;SDS011;62915;50.832;4.462;2023-12-28T07:40:38;17.58;;;3.45;;
23680;SDS011;62915;50.832;4.462;2023-12-28T07:43:04;22.50;;;4.18;;
23680;SDS011;62915;50.832;4.462;2023-12-28T07:45:30;15.60;;;3.53;;
23680;SDS011;62915;50.832;4.462;2023-12-28T07:47:57;14.27;;;2.97;;
23680;SDS011;62915;50.832;4.462;2023-12-28T07:50:26;18.17;;;3.65;;
23680;SDS011;62915;50.832;4.462;2023-12-28T07:52:51;18.25;;;3.47;;
23680;SDS011;62915;50.832;4.462;2023-12-28T07:55:17;18.42;;;3.47;;
23680;SDS011;62915;50.832;4.462;2023-12-28T07:57:43;16.35;;;3.10;;
23680;SDS011;62915;50.832;4.462;2023-12-28T08:00:09;9.80;;;2.33;;
23680;SDS011;62915;50.832;4.462;2023-12-28T08:02:35;16.25;;;3.35;;
23680;SDS011;62915;50.832;4.462;2023-12-28T08:05:01;17.80;;;3.38;;
23680;SDS011;62915;50.832;4.462;2023-12-28T08:07:28;14.30;;;2.80;;
23680;SDS011;62915;50.832;4.462;2023-12-28T08:09:53;18.35;;;2.70;;
23680;SDS011;62915;50.832;4.462;2023-12-28T08:12:19;10.65;;;2.33;;
23680;SDS011;62915;50.832;4.462;2023-12-28T08:14:46;14.13;;;2.92;;
23680;SDS011;62915;50.832;4.462;2023-12-28T08:17:12;10.85;;;2.55;;
23680;SDS011;62915;50.832;4.462;2023-12-28T08:19:38;22.77;;;3.55;;
23680;SDS011;62915;50.832;4.462;2023-12-28T08:22:04;21.70;;;3.05;;
23680;SDS011;62915;50.832;4.462;2023-12-28T08:24:29;18.38;;;3.35;;
23680;SDS011;62915;50.832;4.462;2023-12-28T08:26:55;14.55;;;3.22;;
23680;SDS011;62915;50.832;4.462;2023-12-28T08:29:25;12.90;;;3.20;;
23680;SDS011;62915;50.832;4.462;2023-12-28T08:31:51;13.65;;;3.80;;
23680;SDS011;62915;50.832;4.462;2023-12-28T08:34:17;16.40;;;2.88;;
23680;SDS011;62915;50.832;4.462;2023-12-28T08:36:43;18.90;;;3.03;;
23680;SDS011;62915;50.832;4.462;2023-12-28T08:39:09;17.38;;;3.08;;
23680;SDS011;62915;50.832;4.462;2023-12-28T08:41:34;13.77;;;2.80;;
23680;SDS011;62915;50.832;4.462;2023-12-28T08:44:00;18.13;;;3.08;;
23680;SDS011;62915;50.832;4.462;2023-12-28T08:46:26;19.38;;;3.75;;
23680;SDS011;62915;50.832;4.462;2023-12-28T08:48:53;15.30;;;2.75;;
23680;SDS011;62915;50.832;4.462;2023-12-28T08:51:18;19.55;;;2.58;;
23680;SDS011;62915;50.832;4.462;2023-12-28T08:53:45;13.55;;;2.50;;
23680;SDS011;62915;50.832;4.462;2023-12-28T08:56:21;13.45;;;2.92;;
23680;SDS011;62915;50.832;4.462;2023-12-28T08:58:47;16.30;;;3.22;;
23680;SDS011;62915;50.832;4.462;2023-12-28T09:01:21;15.15;;;2.80;;
23680;SDS011;62915;50.832;4.462;2023-12-28T09:03:48;14.77;;;2.92;;
23680;SDS011;62915;50.832;4.462;2023-12-28T09:06:17;16.02;;;3.40;;
23680;SDS011;62915;50.832;4.462;2023-12-28T09:08:44;18.45;;;2.70;;
23680;SDS011;62915;50.832;4.462;2023-12-28T09:11:12;14.30;;;2.83;;
23680;SDS011;62915;50.832;4.462;2023-12-28T09:13:39;16.73;;;3.28;;
23680;SDS011;62915;50.832;4.462;2023-12-28T09:16:05;19.13;;;3.30;;
23680;SDS011;62915;50.832;4.462;2023-12-28T09:18:32;16.60;;;3.13;;
23680;SDS011;62915;50.832;4.462;2023-12-28T09:20:58;16.00;;;2.80;;
23680;SDS011;62915;50.832;4.462;2023-12-28T09:23:24;13.15;;;2.60;;
23680;SDS011;62915;50.832;4.462;2023-12-28T09:25:50;19.98;;;2.70;;
23680;SDS011;62915;50.832;4.462;2023-12-28T09:28:15;15.68;;;3.28;;
23680;SDS011;62915;50.832;4.462;2023-12-28T09:30:41;15.25;;;3.40;;
23680;SDS011;62915;50.832;4.462;2023-12-28T09:33:07;20.83;;;3.80;;
23680;SDS011;62915;50.832;4.462;2023-12-28T09:35:33;14.15;;;2.95;;
23680;SDS011;62915;50.832;4.462;2023-12-28T09:37:59;17.80;;;2.90;;
23680;SDS011;62915;50.832;4.462;2023-12-28T09:40:24;20.50;;;3.42;;
23680;SDS011;62915;50.832;4.462;2023-12-28T09:42:53;16.27;;;2.55;;
23680;SDS011;62915;50.832;4.462;2023-12-28T09:45:37;16.75;;;3.00;;
23680;SDS011;62915;50.832;4.462;2023-12-28T09:48:03;14.20;;;2.95;;
23680;SDS011;62915;50.832;4.462;2023-12-28T09:50:29;15.00;;;3.22;;
23680;SDS011;62915;50.832;4.462;2023-12-28T09:52:55;18.77;;;3.47;;
23680;SDS011;62915;50.832;4.462;2023-12-28T09:55:21;17.50;;;2.80;;
23680;SDS011;62915;50.832;4.462;2023-12-28T09:57:47;16.70;;;3.60;;
23680;SDS011;62915;50.832;4.462;2023-12-28T10:00:14;18.88;;;3.78;;
23680;SDS011;62915;50.832;4.462;2023-12-28T10:02:40;19.85;;;3.30;;
23680;SDS011;62915;50.832;4.462;2023-12-28T10:05:12;16.05;;;3.55;;
23680;SDS011;62915;50.832;4.462;2023-12-28T10:07:42;15.57;;;3.22;;
23680;SDS011;62915;50.832;4.462;2023-12-28T10:10:09;16.77;;;3.22;;
23680;SDS011;62915;50.832;4.462;2023-12-28T10:12:35;24.48;;;4.13;;
23680;SDS011;62915;50.832;4.462;2023-12-28T10:15:02;23.42;;;3.65;;
23680;SDS011;62915;50.832;4.462;2023-12-28T10:17:29;14.70;;;2.75;;
23680;SDS011;62915;50.832;4.462;2023-12-28T10:19:54;15.43;;;2.50;;
23680;SDS011;62915;50.832;4.462;2023-12-28T10:22:27;19.88;;;3.90;;
23680;SDS011;62915;50.832;4.462;2023-12-28T10:24:54;17.52;;;3.80;;
23680;SDS011;62915;50.832;4.462;2023-12-28T10:27:19;17.58;;;3.42;;
23680;SDS011;62915;50.832;4.462;2023-12-28T10:29:46;15.68;;;3.85;;
23680;SDS011;62915;50.832;4.462;2023-12-28T10:32:11;19.15;;;3.10;;
23680;SDS011;62915;50.832;4.462;2023-12-28T10:34:38;14.77;;;2.95;;
23680;SDS011;62915;50.832;4.462;2023-12-28T10:37:04;17.13;;;3.13;;
23680;SDS011;62915;50.832;4.462;2023-12-28T10:39:31;13.07;;;2.90;;
23680;SDS011;62915;50.832;4.462;2023-12-28T10:41:59;18.17;;;3.00;;
23680;SDS011;62915;50.832;4.462;2023-12-28T10:44:28;18.48;;;3.05;;
23680;SDS011;62915;50.832;4.462;2023-12-28T10:46:58;19.63;;;3.08;;
23680;SDS011;62915;50.832;4.462;2023-12-28T10:49:27;15.90;;;2.83;;
23680;SDS011;62915;50.832;4.462;2023-12-28T10:51:55;16.80;;;3.42;;
23680;SDS011;62915;50.832;4.462;2023-12-28T11:02:44;13.95;;;2.78;;
23680;SDS011;62915;50.832;4.462;2023-12-28T11:05:12;16.77;;;2.78;;
23680;SDS011;62915;50.832;4.462;2023-12-28T11:07:39;15.80;;;3.65;;
23680;SDS011;62915;50.832;4.462;2023-12-28T11:10:08;20.33;;;3.47;;
23680;SDS011;62915;50.832;4.462;2023-12-28T11:12:35;16.83;;;3.42;;
23680;SDS011;62915;50.832;4.462;2023-12-28T11:15:04;17.70;;;3.25;;
23680;SDS011;62915;50.832;4.462;2023-12-28T11:17:31;22.08;;;4.78;;
23680;SDS011;62915;50.832;4.462;2023-12-28T11:19:58;11.73;;;2.78;;
23680;SDS011;62915;50.832;4.462;2023-12-28T11:22:25;16.80;;;3.08;;
23680;SDS011;62915;50.832;4.462;2023-12-28T11:24:52;19.58;;;3.70;;
23680;SDS011;62915;50.832;4.462;2023-12-28T11:27:18;18.75;;;3.35;;
23680;SDS011;62915;50.832;4.462;2023-12-28T11:29:44;17.58;;;3.50;;
23680;SDS011;62915;50.832;4.462;2023-12-28T11:32:14;20.20;;;3.17;;
23680;SDS011;62915;50.832;4.462;2023-12-28T11:34:40;15.95;;;3.05;;
23680;SDS011;62915;50.832;4.462;2023-12-28T11:37:12;19.00;;;2.97;;
23680;SDS011;62915;50.832;4.462;2023-12-28T11:39:43;13.55;;;2.83;;
23680;SDS011;62915;50.832;4.462;2023-12-28T11:42:09;19.73;;;3.47;;
23680;SDS011;62915;50.832;4.462;2023-12-28T11:44:43;19.17;;;3.67;;
23680;SDS011;62915;50.832;4.462;2023-12-28T11:49:38;15.55;;;3.13;;
23680;SDS011;62915;50.832;4.462;2023-12-28T11:52:05;19.33;;;3.55;;
23680;SDS011;62915;50.832;4.462;2023-12-28T11:54:32;19.42;;;3.22;;
23680;SDS011;62915;50.832;4.462;2023-12-28T11:56:58;19.30;;;3.72;;
23680;SDS011;62915;50.832;4.462;2023-12-28T11:59:24;20.83;;;3.58;;
23680;SDS011;62915;50.832;4.462;2023-12-28T12:01:50;17.13;;;4.57;;
23680;SDS011;62915;50.832;4.462;2023-12-28T12:04:20;13.90;;;3.80;;
23680;SDS011;62915;50.832;4.462;2023-12-28T12:06:47;21.55;;;4.18;;
23680;SDS011;62915;50.832;4.462;2023-12-28T12:09:14;19.40;;;3.05;;
23680;SDS011;62915;50.832;4.462;2023-12-28T12:11:40;24.33;;;3.78;;
23680;SDS011;62915;50.832;4.462;2023-12-28T12:14:10;16.55;;;3.05;;
23680;SDS011;62915;50.832;4.462;2023-12-28T12:16:37;18.58;;;2.78;;
23680;SDS011;62915;50.832;4.462;2023-12-28T12:19:05;19.05;;;3.55;;
23680;SDS011;62915;50.832;4.462;2023-12-28T12:21:34;10.68;;;2.72;;
23680;SDS011;62915;50.832;4.462;2023-12-28T12:24:00;23.60;;;3.05;;
23680;SDS011;62915;50.832;4.462;2023-12-28T12:26:26;9.65;;;2.95;;
23680;SDS011;62915;50.832;4.462;2023-12-28T12:28:54;14.65;;;3.45;;
23680;SDS011;62915;50.832;4.462;2023-12-28T12:31:20;16.63;;;2.97;;
23680;SDS011;62915;50.832;4.462;2023-12-28T12:33:46;15.10;;;2.92;;
23680;SDS011;62915;50.832;4.462;2023-12-28T12:36:12;15.73;;;3.55;;
23680;SDS011;62915;50.832;4.462;2023-12-28T12:38:38;19.67;;;3.22;;
23680;SDS011;62915;50.832;4.462;2023-12-28T12:41:04;18.25;;;2.90;;
23680;SDS011;62915;50.832;4.462;2023-12-28T12:43:30;17.38;;;3.53;;
23680;SDS011;62915;50.832;4.462;2023-12-28T12:45:56;15.05;;;3.13;;
23680;SDS011;62915;50.832;4.462;2023-12-28T12:48:22;17.45;;;3.65;;
23680;SDS011;62915;50.832;4.462;2023-12-28T12:50:47;15.68;;;2.92;;
23680;SDS011;62915;50.832;4.462;2023-12-28T12:53:14;16.92;;;3.67;;
23680;SDS011;62915;50.832;4.462;2023-12-28T12:55:40;16.98;;;2.95;;
23680;SDS011;62915;50.832;4.462;2023-12-28T12:58:10;20.45;;;3.15;;
23680;SDS011;62915;50.832;4.462;2023-12-28T13:00:37;16.35;;;2.65;;
23680;SDS011;62915;50.832;4.462;2023-12-28T13:03:07;13.18;;;2.97;;
23680;SDS011;62915;50.832;4.462;2023-12-28T13:05:35;13.65;;;2.63;;
23680;SDS011;62915;50.832;4.462;2023-12-28T13:08:02;18.63;;;3.30;;
23680;SDS011;62915;50.832;4.462;2023-12-28T13:10:31;17.67;;;3.70;;
23680;SDS011;62915;50.832;4.462;2023-12-28T13:12:57;12.77;;;3.28;;
23680;SDS011;62915;50.832;4.462;2023-12-28T13:15:23;15.73;;;3.45;;
23680;SDS011;62915;50.832;4.462;2023-12-28T13:17:49;20.75;;;3.03;;
23680;SDS011;62915;50.832;4.462;2023-12-28T13:20:14;19.80;;;3.22;;
23680;SDS011;62915;50.832;4.462;2023-12-28T13:22:40;18.10;;;3.22;;
23680;SDS011;62915;50.832;4.462;2023-12-28T13:25:06;13.15;;;3.45;;
23680;SDS011;62915;50.832;4.462;2023-12-28T13:27:32;18.40;;;2.92;;
23680;SDS011;62915;50.832;4.462;2023-12-28T13:29:58;13.77;;;3.55;;
23680;SDS011;62915;50.832;4.462;2023-12-28T13:32:24;13.52;;;3.33;;
23680;SDS011;62915;50.832;4.462;2023-12-28T13:34:50;17.40;;;3.15;;
23680;SDS011;62915;50.832;4.462;2023-12-28T13:37:16;14.50;;;2.58;;
23680;SDS011;62915;50.832;4.462;2023-12-28T13:39:42;12.88;;;2.67;;
23680;SDS011;62915;50.832;4.462;2023-12-28T13:42:08;12.48;;;2.40;;
23680;SDS011;62915;50.832;4.462;2023-12-28T13:44:34;19.88;;;2.88;;
23680;SDS011;62915;50.832;4.462;2023-12-28T13:47:03;11.93;;;2.85;;
23680;SDS011;62915;50.832;4.462;2023-12-28T13:49:30;13.15;;;2.92;;
23680;SDS011;62915;50.832;4.462;2023-12-28T13:51:56;17.98;;;3.00;;
23680;SDS011;62915;50.832;4.462;2023-12-28T13:54:22;17.00;;;3.35;;
23680;SDS011;62915;50.832;4.462;2023-12-28T13:56:49;13.38;;;3.15;;
23680;SDS011;62915;50.832;4.462;2023-12-28T13:59:14;12.85;;;3.13;;
23680;SDS011;62915;50.832;4.462;2023-12-28T14:01:40;23.48;;;3.80;;
23680;SDS011;62915;50.832;4.462;2023-12-28T14:04:06;10.80;;;2.15;;
23680;SDS011;62915;50.832;4.462;2023-12-28T14:06:32;20.52;;;2.80;;
23680;SDS011;62915;50.832;4.462;2023-12-28T14:08:58;12.98;;;2.67;;
23680;SDS011;62915;50.832;4.462;2023-12-28T14:11:24;17.83;;;2.80;;
23680;SDS011;62915;50.832;4.462;2023-12-28T14:13:50;14.75;;;3.30;;
23680;SDS011;62915;50.832;4.462;2023-12-28T14:16:16;14.77;;;2.95;;
23680;SDS011;62915;50.832;4.462;2023-12-28T14:18:41;14.25;;;2.40;;
23680;SDS011;62915;50.832;4.462;2023-12-28T14:21:09;13.30;;;2.40;;
23680;SDS011;62915;50.832;4.462;2023-12-28T14:23:35;16.45;;;2.58;;
23680;SDS011;62915;50.832;4.462;2023-12-28T14:26:12;14.80;;;2.85;;
23680;SDS011;62915;50.832;4.462;2023-12-28T14:28:42;19.08;;;3.17;;
23680;SDS011;62915;50.832;4.462;2023-12-28T14:31:09;16.27;;;2.72;;
23680;SDS011;62915;50.832;4.462;2023-12-28T14:33:36;10.40;;;2.70;;
23680;SDS011;62915;50.832;4.462;2023-12-28T14:36:04;21.45;;;3.38;;
23680;SDS011;62915;50.832;4.462;2023-12-28T14:38:38;11.45;;;2.55;;
23680;SDS011;62915;50.832;4.462;2023-12-28T14:41:03;13.90;;;3.60;;
23680;SDS011;62915;50.832;4.462;2023-12-28T14:43:29;17.88;;;3.55;;
23680;SDS011;62915;50.832;4.462;2023-12-28T14:45:55;23.00;;;4.63;;
23680;SDS011;62915;50.832;4.462;2023-12-28T14:48:20;19.45;;;3.28;;